sensor_id;sensor_type;location;lat;lon;timestamp;P1;durP1;ratioP1;P2;durP2;ratioP2
55467;SDS011;41332;42.702;23.200;2023-06-19T00:02:16;4.28;;;3.28;;
55467;SDS011;41332;42.702;23.200;2023-06-19T00:04:42;3.50;;;3.20;;
55467;SDS011;41332;42.702;23.200;2023-06-19T00:07:07;3.50;;;3.30;;
55467;SDS011;41332;42.702;23.200;2023-06-19T00:09:33;5.60;;;3.05;;
55467;SDS011;41332;42.702;23.200;2023-06-19T00:11:58;3.97;;;3.67;;
55467;SDS011;41332;42.702;23.200;2023-06-19T00:14:24;3.72;;;3.30;;
55467;SDS011;41332;42.702;23.200;2023-06-19T00:16:50;4.63;;;3.60;;
55467;SDS011;41332;42.702;23.200;2023-06-19T00:19:16;3.72;;;3.25;;
55467;SDS011;41332;42.702;23.200;2023-06-19T00:21:42;3.55;;;3.15;;
55467;SDS011;41332;42.702;23.200;2023-06-19T00:24:08;4.20;;;2.92;;
55467;SDS011;41332;42.702;23.200;2023-06-19T00:26:34;3.63;;;3.22;;
55467;SDS011;41332;42.702;23.200;2023-06-19T00:29:00;5.57;;;3.20;;
55467;SDS011;41332;42.702;23.200;2023-06-19T00:31:25;4.43;;;3.50;;
55467;SDS011;41332;42.702;23.200;2023-06-19T00:33:52;3.78;;;3.40;;
55467;SDS011;41332;42.702;23.200;2023-06-19T00:36:17;3.95;;;3.40;;
55467;SDS011;41332;42.702;23.200;2023-06-19T00:38:48;3.45;;;3.05;;
55467;SDS011;41332;42.702;23.200;2023-06-19T00:41:14;3.92;;;3.13;;
55467;SDS011;41332;42.702;23.200;2023-06-19T00:43:41;4.65;;;3.40;;
55467;SDS011;41332;42.702;23.200;2023-06-19T00:46:06;4.32;;;4.03;;
55467;SDS011;41332;42.702;23.200;2023-06-19T00:48:32;7.50;;;3.53;;
55467;SDS011;41332;42.702;23.200;2023-06-19T00:50:59;6.82;;;3.53;;
55467;SDS011;41332;42.702;23.200;2023-06-19T00:53:25;5.18;;;3.47;;
55467;SDS011;41332;42.702;23.200;2023-06-19T00:55:51;3.28;;;3.08;;
55467;SDS011;41332;42.702;23.200;2023-06-19T00:58:19;3.65;;;3.35;;
55467;SDS011;41332;42.702;23.200;2023-06-19T01:00:45;4.40;;;3.55;;
55467;SDS011;41332;42.702;23.200;2023-06-19T01:03:11;5.55;;;3.78;;
55467;SDS011;41332;42.702;23.200;2023-06-19T01:05:36;4.55;;;3.60;;
55467;SDS011;41332;42.702;23.200;2023-06-19T01:10:43;3.78;;;3.47;;
55467;SDS011;41332;42.702;23.200;2023-06-19T01:18:27;3.97;;;3.58;;
55467;SDS011;41332;42.702;23.200;2023-06-19T01:20:54;6.30;;;3.60;;
55467;SDS011;41332;42.702;23.200;2023-06-19T01:23:20;5.10;;;3.42;;
55467;SDS011;41332;42.702;23.200;2023-06-19T01:25:45;3.95;;;2.92;;
55467;SDS011;41332;42.702;23.200;2023-06-19T01:28:10;7.80;;;4.10;;
55467;SDS011;41332;42.702;23.200;2023-06-19T01:30:38;4.43;;;3.13;;
55467;SDS011;41332;42.702;23.200;2023-06-19T01:35:48;5.55;;;3.72;;
55467;SDS011;41332;42.702;23.200;2023-06-19T01:38:15;4.05;;;3.65;;
55467;SDS011;41332;42.702;23.200;2023-06-19T01:40:42;3.63;;;3.33;;
55467;SDS011;41332;42.702;23.200;2023-06-19T01:43:08;3.78;;;2.95;;
55467;SDS011;41332;42.702;23.200;2023-06-19T01:45:35;2.83;;;2.63;;
55467;SDS011;41332;42.702;23.200;2023-06-19T01:48:00;4.60;;;2.83;;
55467;SDS011;41332;42.702;23.200;2023-06-19T01:50:26;5.40;;;3.10;;
55467;SDS011;41332;42.702;23.200;2023-06-19T01:52:52;7.82;;;4.20;;
55467;SDS011;41332;42.702;23.200;2023-06-19T01:55:17;5.18;;;3.85;;
55467;SDS011;41332;42.702;23.200;2023-06-19T01:57:43;3.85;;;3.65;;
55467;SDS011;41332;42.702;23.200;2023-06-19T02:00:11;4.05;;;3.50;;
55467;SDS011;41332;42.702;23.200;2023-06-19T02:02:36;3.83;;;3.53;;
55467;SDS011;41332;42.702;23.200;2023-06-19T02:05:02;3.65;;;3.35;;
55467;SDS011;41332;42.702;23.200;2023-06-19T02:07:28;3.97;;;3.67;;
55467;SDS011;41332;42.702;23.200;2023-06-19T02:09:53;3.78;;;3.47;;
55467;SDS011;41332;42.702;23.200;2023-06-19T02:12:19;3.90;;;3.53;;
55467;SDS011;41332;42.702;23.200;2023-06-19T02:14:44;4.30;;;3.95;;
55467;SDS011;41332;42.702;23.200;2023-06-19T02:17:10;3.95;;;3.25;;
55467;SDS011;41332;42.702;23.200;2023-06-19T02:19:35;4.80;;;3.85;;
55467;SDS011;41332;42.702;23.200;2023-06-19T02:22:01;4.88;;;4.45;;
55467;SDS011;41332;42.702;23.200;2023-06-19T02:24:26;3.50;;;3.20;;
55467;SDS011;41332;42.702;23.200;2023-06-19T02:26:52;3.70;;;3.40;;
55467;SDS011;41332;42.702;23.200;2023-06-19T02:29:17;5.22;;;4.22;;
55467;SDS011;41332;42.702;23.200;2023-06-19T02:31:43;4.10;;;3.70;;
55467;SDS011;41332;42.702;23.200;2023-06-19T02:34:09;5.90;;;3.70;;
55467;SDS011;41332;42.702;23.200;2023-06-19T02:36:34;5.10;;;3.90;;
55467;SDS011;41332;42.702;23.200;2023-06-19T02:39:00;10.15;;;4.20;;
55467;SDS011;41332;42.702;23.200;2023-06-19T02:41:26;6.38;;;3.50;;
55467;SDS011;41332;42.702;23.200;2023-06-19T02:43:52;4.13;;;3.83;;
55467;SDS011;41332;42.702;23.200;2023-06-19T02:46:17;4.30;;;3.90;;
55467;SDS011;41332;42.702;23.200;2023-06-19T02:48:42;4.47;;;3.45;;
55467;SDS011;41332;42.702;23.200;2023-06-19T02:51:08;4.95;;;3.25;;
55467;SDS011;41332;42.702;23.200;2023-06-19T02:53:33;3.72;;;3.40;;
55467;SDS011;41332;42.702;23.200;2023-06-19T02:55:59;4.13;;;3.70;;
55467;SDS011;41332;42.702;23.200;2023-06-19T02:58:24;3.80;;;3.50;;
55467;SDS011;41332;42.702;23.200;2023-06-19T03:00:51;3.92;;;3.63;;
55467;SDS011;41332;42.702;23.200;2023-06-19T03:03:17;4.18;;;3.80;;
55467;SDS011;41332;42.702;23.200;2023-06-19T03:05:42;5.78;;;4.65;;
55467;SDS011;41332;42.702;23.200;2023-06-19T03:08:08;3.80;;;3.45;;
55467;SDS011;41332;42.702;23.200;2023-06-19T03:10:33;5.13;;;3.85;;
55467;SDS011;41332;42.702;23.200;2023-06-19T03:12:58;6.40;;;3.72;;
55467;SDS011;41332;42.702;23.200;2023-06-19T03:15:24;6.72;;;4.10;;
55467;SDS011;41332;42.702;23.200;2023-06-19T03:17:52;10.25;;;3.65;;
55467;SDS011;41332;42.702;23.200;2023-06-19T03:20:18;7.05;;;4.28;;
55467;SDS011;41332;42.702;23.200;2023-06-19T03:22:43;3.75;;;3.45;;
55467;SDS011;41332;42.702;23.200;2023-06-19T03:25:09;5.80;;;3.58;;
55467;SDS011;41332;42.702;23.200;2023-06-19T03:27:34;5.25;;;4.50;;
55467;SDS011;41332;42.702;23.200;2023-06-19T03:30:01;3.80;;;3.60;;
55467;SDS011;41332;42.702;23.200;2023-06-19T03:32:31;5.07;;;3.50;;
55467;SDS011;41332;42.702;23.200;2023-06-19T03:34:57;4.65;;;4.13;;
55467;SDS011;41332;42.702;23.200;2023-06-19T03:37:22;5.50;;;3.33;;
55467;SDS011;41332;42.702;23.200;2023-06-19T03:39:48;4.00;;;3.67;;
55467;SDS011;41332;42.702;23.200;2023-06-19T03:42:13;4.03;;;3.45;;
55467;SDS011;41332;42.702;23.200;2023-06-19T03:44:38;3.53;;;3.20;;
55467;SDS011;41332;42.702;23.200;2023-06-19T03:47:05;6.50;;;4.43;;
55467;SDS011;41332;42.702;23.200;2023-06-19T03:49:31;3.88;;;3.42;;
55467;SDS011;41332;42.702;23.200;2023-06-19T03:51:56;4.15;;;3.60;;
55467;SDS011;41332;42.702;23.200;2023-06-19T03:54:21;6.18;;;4.20;;
55467;SDS011;41332;42.702;23.200;2023-06-19T03:56:47;4.00;;;3.60;;
55467;SDS011;41332;42.702;23.200;2023-06-19T03:59:12;4.90;;;3.55;;
55467;SDS011;41332;42.702;23.200;2023-06-19T04:01:37;4.00;;;3.47;;
55467;SDS011;41332;42.702;23.200;2023-06-19T04:04:03;3.83;;;3.40;;
55467;SDS011;41332;42.702;23.200;2023-06-19T04:06:28;3.70;;;3.40;;
55467;SDS011;41332;42.702;23.200;2023-06-19T04:08:54;3.08;;;2.83;;
55467;SDS011;41332;42.702;23.200;2023-06-19T04:11:19;3.90;;;3.42;;
55467;SDS011;41332;42.702;23.200;2023-06-19T04:13:45;3.50;;;3.20;;
55467;SDS011;41332;42.702;23.200;2023-06-19T04:16:11;3.38;;;3.17;;
55467;SDS011;41332;42.702;23.200;2023-06-19T04:18:36;5.75;;;4.25;;
55467;SDS011;41332;42.702;23.200;2023-06-19T04:21:01;3.85;;;3.50;;
55467;SDS011;41332;42.702;23.200;2023-06-19T04:23:27;3.85;;;3.28;;
55467;SDS011;41332;42.702;23.200;2023-06-19T04:25:52;4.25;;;3.33;;
55467;SDS011;41332;42.702;23.200;2023-06-19T04:28:18;3.95;;;3.10;;
55467;SDS011;41332;42.702;23.200;2023-06-19T04:30:43;3.97;;;3.25;;
55467;SDS011;41332;42.702;23.200;2023-06-19T04:33:09;3.25;;;2.95;;
55467;SDS011;41332;42.702;23.200;2023-06-19T04:35:34;4.13;;;3.08;;
55467;SDS011;41332;42.702;23.200;2023-06-19T04:38:05;4.00;;;3.67;;
55467;SDS011;41332;42.702;23.200;2023-06-19T04:40:33;3.15;;;2.85;;
55467;SDS011;41332;42.702;23.200;2023-06-19T04:42:59;3.72;;;3.42;;
55467;SDS011;41332;42.702;23.200;2023-06-19T04:45:27;3.50;;;3.20;;
55467;SDS011;41332;42.702;23.200;2023-06-19T04:47:52;2.92;;;2.72;;
55467;SDS011;41332;42.702;23.200;2023-06-19T04:50:18;3.28;;;3.08;;
55467;SDS011;41332;42.702;23.200;2023-06-19T04:52:43;3.58;;;3.28;;
55467;SDS011;41332;42.702;23.200;2023-06-19T04:55:09;3.80;;;3.50;;
55467;SDS011;41332;42.702;23.200;2023-06-19T04:57:37;3.97;;;3.63;;
55467;SDS011;41332;42.702;23.200;2023-06-19T05:00:03;6.93;;;3.05;;
55467;SDS011;41332;42.702;23.200;2023-06-19T05:02:31;4.82;;;3.20;;
55467;SDS011;41332;42.702;23.200;2023-06-19T05:04:56;3.10;;;2.80;;
55467;SDS011;41332;42.702;23.200;2023-06-19T05:07:22;3.40;;;3.20;;
55467;SDS011;41332;42.702;23.200;2023-06-19T05:09:47;3.03;;;2.53;;
55467;SDS011;41332;42.702;23.200;2023-06-19T05:12:13;3.40;;;3.20;;
55467;SDS011;41332;42.702;23.200;2023-06-19T05:14:39;3.17;;;2.88;;
55467;SDS011;41332;42.702;23.200;2023-06-19T05:17:04;3.70;;;3.40;;
55467;SDS011;41332;42.702;23.200;2023-06-19T05:19:30;3.13;;;2.90;;
55467;SDS011;41332;42.702;23.200;2023-06-19T05:21:56;3.72;;;3.42;;
55467;SDS011;41332;42.702;23.200;2023-06-19T05:24:21;4.28;;;3.13;;
55467;SDS011;41332;42.702;23.200;2023-06-19T05:26:46;3.33;;;2.75;;
55467;SDS011;41332;42.702;23.200;2023-06-19T05:29:12;4.22;;;3.72;;
55467;SDS011;41332;42.702;23.200;2023-06-19T05:31:37;3.50;;;3.20;;
55467;SDS011;41332;42.702;23.200;2023-06-19T05:34:03;3.83;;;3.47;;
55467;SDS011;41332;42.702;23.200;2023-06-19T05:36:28;4.00;;;3.33;;
55467;SDS011;41332;42.702;23.200;2023-06-19T05:38:53;4.30;;;2.85;;
55467;SDS011;41332;42.702;23.200;2023-06-19T05:41:19;2.95;;;2.75;;
55467;SDS011;41332;42.702;23.200;2023-06-19T05:43:44;3.47;;;3.17;;
55467;SDS011;41332;42.702;23.200;2023-06-19T05:46:09;5.50;;;3.05;;
55467;SDS011;41332;42.702;23.200;2023-06-19T05:48:36;3.22;;;2.95;;
55467;SDS011;41332;42.702;23.200;2023-06-19T05:51:02;4.75;;;3.10;;
55467;SDS011;41332;42.702;23.200;2023-06-19T05:53:27;3.35;;;3.05;;
55467;SDS011;41332;42.702;23.200;2023-06-19T05:55:53;3.10;;;2.90;;
55467;SDS011;41332;42.702;23.200;2023-06-19T05:58:18;3.53;;;3.22;;
55467;SDS011;41332;42.702;23.200;2023-06-19T06:00:46;3.22;;;2.92;;
55467;SDS011;41332;42.702;23.200;2023-06-19T06:03:12;2.88;;;2.60;;
55467;SDS011;41332;42.702;23.200;2023-06-19T06:05:38;2.80;;;2.60;;
55467;SDS011;41332;42.702;23.200;2023-06-19T06:08:04;3.42;;;3.10;;
55467;SDS011;41332;42.702;23.200;2023-06-19T06:10:29;3.00;;;2.60;;
55467;SDS011;41332;42.702;23.200;2023-06-19T06:12:55;3.20;;;2.92;;
55467;SDS011;41332;42.702;23.200;2023-06-19T06:15:21;2.33;;;2.22;;
55467;SDS011;41332;42.702;23.200;2023-06-19T06:17:46;3.03;;;2.83;;
55467;SDS011;41332;42.702;23.200;2023-06-19T06:20:12;5.57;;;3.30;;
55467;SDS011;41332;42.702;23.200;2023-06-19T06:22:40;2.90;;;2.70;;
55467;SDS011;41332;42.702;23.200;2023-06-19T06:25:06;3.10;;;2.90;;
55467;SDS011;41332;42.702;23.200;2023-06-19T06:27:32;2.97;;;2.77;;
55467;SDS011;41332;42.702;23.200;2023-06-19T06:29:58;7.47;;;3.28;;
55467;SDS011;41332;42.702;23.200;2023-06-19T06:32:24;3.95;;;2.45;;
55467;SDS011;41332;42.702;23.200;2023-06-19T06:34:49;3.15;;;2.90;;
55467;SDS011;41332;42.702;23.200;2023-06-19T06:37:14;3.58;;;2.30;;
55467;SDS011;41332;42.702;23.200;2023-06-19T06:39:42;3.50;;;3.15;;
55467;SDS011;41332;42.702;23.200;2023-06-19T06:54:15;4.03;;;3.72;;
55467;SDS011;41332;42.702;23.200;2023-06-19T06:56:41;2.80;;;2.60;;
55467;SDS011;41332;42.702;23.200;2023-06-19T06:59:06;2.90;;;2.70;;
55467;SDS011;41332;42.702;23.200;2023-06-19T07:01:32;2.90;;;2.70;;
55467;SDS011;41332;42.702;23.200;2023-06-19T07:03:57;2.63;;;2.43;;
55467;SDS011;41332;42.702;23.200;2023-06-19T07:06:22;3.00;;;2.70;;
55467;SDS011;41332;42.702;23.200;2023-06-19T07:08:48;2.60;;;2.40;;
55467;SDS011;41332;42.702;23.200;2023-06-19T07:11:13;5.63;;;3.10;;
55467;SDS011;41332;42.702;23.200;2023-06-19T07:13:39;3.15;;;2.88;;
55467;SDS011;41332;42.702;23.200;2023-06-19T07:18:32;3.33;;;3.03;;
55467;SDS011;41332;42.702;23.200;2023-06-19T07:20:58;2.78;;;2.58;;
55467;SDS011;41332;42.702;23.200;2023-06-19T07:23:23;3.07;;;2.87;;
55467;SDS011;41332;42.702;23.200;2023-06-19T07:25:49;3.87;;;3.50;;
55467;SDS011;41332;42.702;23.200;2023-06-19T07:28:14;3.07;;;2.87;;
55467;SDS011;41332;42.702;23.200;2023-06-19T07:30:40;3.33;;;3.03;;
55467;SDS011;41332;42.702;23.200;2023-06-19T07:33:05;3.43;;;3.13;;
55467;SDS011;41332;42.702;23.200;2023-06-19T07:35:31;2.97;;;2.67;;
55467;SDS011;41332;42.702;23.200;2023-06-19T07:37:56;2.90;;;2.70;;
55467;SDS011;41332;42.702;23.200;2023-06-19T07:40:21;3.10;;;2.80;;
55467;SDS011;41332;42.702;23.200;2023-06-19T07:42:47;2.90;;;2.70;;
55467;SDS011;41332;42.702;23.200;2023-06-19T07:45:12;2.80;;;2.60;;
55467;SDS011;41332;42.702;23.200;2023-06-19T07:47:38;2.90;;;2.70;;
55467;SDS011;41332;42.702;23.200;2023-06-19T07:50:04;3.20;;;2.93;;
55467;SDS011;41332;42.702;23.200;2023-06-19T07:52:30;2.60;;;2.40;;
55467;SDS011;41332;42.702;23.200;2023-06-19T07:54:56;3.70;;;2.73;;
55467;SDS011;41332;42.702;23.200;2023-06-19T07:57:22;4.13;;;2.80;;
55467;SDS011;41332;42.702;23.200;2023-06-19T07:59:49;2.92;;;2.72;;
55467;SDS011;41332;42.702;23.200;2023-06-19T08:02:18;3.78;;;3.40;;
55467;SDS011;41332;42.702;23.200;2023-06-19T08:04:44;7.13;;;2.87;;
55467;SDS011;41332;42.702;23.200;2023-06-19T08:07:10;2.80;;;2.58;;
55467;SDS011;41332;42.702;23.200;2023-06-19T08:09:35;3.37;;;2.50;;
55467;SDS011;41332;42.702;23.200;2023-06-19T08:12:01;2.70;;;2.50;;
55467;SDS011;41332;42.702;23.200;2023-06-19T08:14:27;3.13;;;2.92;;
55467;SDS011;41332;42.702;23.200;2023-06-19T08:16:52;3.10;;;2.47;;
55467;SDS011;41332;42.702;23.200;2023-06-19T08:19:17;2.90;;;2.70;;
55467;SDS011;41332;42.702;23.200;2023-06-19T08:32:46;2.90;;;2.70;;
55467;SDS011;41332;42.702;23.200;2023-06-19T08:35:13;2.80;;;2.60;;
55467;SDS011;41332;42.702;23.200;2023-06-19T08:37:40;3.05;;;2.85;;
55467;SDS011;41332;42.702;23.200;2023-06-19T08:40:05;2.87;;;2.67;;
55467;SDS011;41332;42.702;23.200;2023-06-19T08:42:34;2.75;;;2.55;;
55467;SDS011;41332;42.702;23.200;2023-06-19T08:45:00;5.23;;;2.50;;
55467;SDS011;41332;42.702;23.200;2023-06-19T08:47:29;2.90;;;2.70;;
55467;SDS011;41332;42.702;23.200;2023-06-19T08:49:55;3.47;;;2.78;;
55467;SDS011;41332;42.702;23.200;2023-06-19T08:52:21;3.93;;;2.67;;
55467;SDS011;41332;42.702;23.200;2023-06-19T08:54:46;3.20;;;2.97;;
55467;SDS011;41332;42.702;23.200;2023-06-19T08:57:11;3.27;;;3.07;;
55467;SDS011;41332;42.702;23.200;2023-06-19T08:59:37;2.97;;;2.80;;
55467;SDS011;41332;42.702;23.200;2023-06-19T09:02:02;2.73;;;2.53;;
55467;SDS011;41332;42.702;23.200;2023-06-19T09:04:28;5.20;;;2.53;;
55467;SDS011;41332;42.702;23.200;2023-06-19T09:06:54;2.63;;;2.43;;
55467;SDS011;41332;42.702;23.200;2023-06-19T09:09:24;2.95;;;2.67;;
55467;SDS011;41332;42.702;23.200;2023-06-19T09:12:04;3.10;;;2.80;;
55467;SDS011;41332;42.702;23.200;2023-06-19T09:17:04;3.40;;;2.78;;
55467;SDS011;41332;42.702;23.200;2023-06-19T09:19:32;3.08;;;2.85;;
55467;SDS011;41332;42.702;23.200;2023-06-19T09:22:03;2.83;;;2.67;;
55467;SDS011;41332;42.702;23.200;2023-06-19T09:24:33;2.63;;;2.42;;
55467;SDS011;41332;42.702;23.200;2023-06-19T09:27:16;2.60;;;2.40;;
55467;SDS011;41332;42.702;23.200;2023-06-19T09:29:44;2.72;;;2.53;;
55467;SDS011;41332;42.702;23.200;2023-06-19T09:34:41;3.05;;;2.88;;
55467;SDS011;41332;42.702;23.200;2023-06-19T09:37:07;3.03;;;2.83;;
55467;SDS011;41332;42.702;23.200;2023-06-19T09:39:34;4.25;;;3.03;;
55467;SDS011;41332;42.702;23.200;2023-06-19T09:42:02;3.55;;;2.95;;
55467;SDS011;41332;42.702;23.200;2023-06-19T09:44:30;3.13;;;2.92;;
55467;SDS011;41332;42.702;23.200;2023-06-19T09:46:56;3.08;;;2.83;;
55467;SDS011;41332;42.702;23.200;2023-06-19T09:49:26;5.57;;;3.67;;
55467;SDS011;41332;42.702;23.200;2023-06-19T09:51:57;2.95;;;2.75;;
55467;SDS011;41332;42.702;23.200;2023-06-19T09:54:23;3.50;;;3.20;;
55467;SDS011;41332;42.702;23.200;2023-06-19T09:59:16;2.85;;;2.65;;
55467;SDS011;41332;42.702;23.200;2023-06-19T10:01:44;4.07;;;2.70;;
55467;SDS011;41332;42.702;23.200;2023-06-19T10:04:10;2.67;;;2.47;;
55467;SDS011;41332;42.702;23.200;2023-06-19T10:06:43;3.38;;;2.75;;
55467;SDS011;41332;42.702;23.200;2023-06-19T10:09:11;3.05;;;2.83;;
55467;SDS011;41332;42.702;23.200;2023-06-19T10:11:49;3.20;;;2.90;;
55467;SDS011;41332;42.702;23.200;2023-06-19T10:14:19;4.70;;;3.17;;
55467;SDS011;41332;42.702;23.200;2023-06-19T10:16:45;4.70;;;3.15;;
55467;SDS011;41332;42.702;23.200;2023-06-19T10:19:14;5.27;;;3.90;;
55467;SDS011;41332;42.702;23.200;2023-06-19T10:21:48;3.08;;;2.90;;
55467;SDS011;41332;42.702;23.200;2023-06-19T10:24:15;3.63;;;3.33;;
55467;SDS011;41332;42.702;23.200;2023-06-19T10:26:54;4.57;;;2.90;;
55467;SDS011;41332;42.702;23.200;2023-06-19T10:29:25;2.75;;;2.55;;
55467;SDS011;41332;42.702;23.200;2023-06-19T10:31:52;3.25;;;2.67;;
55467;SDS011;41332;42.702;23.200;2023-06-19T10:34:17;3.23;;;3.00;;
55467;SDS011;41332;42.702;23.200;2023-06-19T10:36:43;3.13;;;2.93;;
55467;SDS011;41332;42.702;23.200;2023-06-19T10:39:08;3.67;;;3.03;;
55467;SDS011;41332;42.702;23.200;2023-06-19T10:41:34;2.87;;;2.67;;
55467;SDS011;41332;42.702;23.200;2023-06-19T10:44:03;3.67;;;3.37;;
55467;SDS011;41332;42.702;23.200;2023-06-19T10:46:33;2.97;;;2.78;;
55467;SDS011;41332;42.702;23.200;2023-06-19T10:49:03;4.93;;;3.40;;
55467;SDS011;41332;42.702;23.200;2023-06-19T10:51:30;5.75;;;3.33;;
55467;SDS011;41332;42.702;23.200;2023-06-19T10:53:58;5.25;;;4.65;;
55467;SDS011;41332;42.702;23.200;2023-06-19T10:56:24;23.20;;;12.00;;
55467;SDS011;41332;42.702;23.200;2023-06-19T10:58:59;16.93;;;11.20;;
55467;SDS011;41332;42.702;23.200;2023-06-19T11:01:35;13.13;;;9.90;;
55467;SDS011;41332;42.702;23.200;2023-06-19T11:04:03;3.42;;;3.22;;
55467;SDS011;41332;42.702;23.200;2023-06-19T11:06:30;3.78;;;3.47;;
55467;SDS011;41332;42.702;23.200;2023-06-19T11:08:55;7.90;;;5.07;;
55467;SDS011;41332;42.702;23.200;2023-06-19T11:11:21;3.67;;;3.40;;
55467;SDS011;41332;42.702;23.200;2023-06-19T11:13:46;3.27;;;3.07;;
55467;SDS011;41332;42.702;23.200;2023-06-19T11:16:14;5.07;;;3.50;;
55467;SDS011;41332;42.702;23.200;2023-06-19T11:18:39;3.30;;;3.10;;
55467;SDS011;41332;42.702;23.200;2023-06-19T11:21:05;9.93;;;3.70;;
55467;SDS011;41332;42.702;23.200;2023-06-19T11:23:30;5.47;;;5.07;;
55467;SDS011;41332;42.702;23.200;2023-06-19T11:26:05;12.20;;;9.03;;
55467;SDS011;41332;42.702;23.200;2023-06-19T11:28:31;5.53;;;4.00;;
55467;SDS011;41332;42.702;23.200;2023-06-19T11:31:01;18.83;;;16.95;;
55467;SDS011;41332;42.702;23.200;2023-06-19T11:33:30;50.95;;;35.45;;
55467;SDS011;41332;42.702;23.200;2023-06-19T11:35:59;83.07;;;52.73;;
55467;SDS011;41332;42.702;23.200;2023-06-19T11:38:25;21.10;;;15.40;;
55467;SDS011;41332;42.702;23.200;2023-06-19T11:40:52;6.72;;;6.13;;
55467;SDS011;41332;42.702;23.200;2023-06-19T11:43:24;67.75;;;53.15;;
55467;SDS011;41332;42.702;23.200;2023-06-19T11:45:53;47.17;;;33.65;;
55467;SDS011;41332;42.702;23.200;2023-06-19T11:48:24;7.93;;;6.45;;
55467;SDS011;41332;42.702;23.200;2023-06-19T11:50:51;4.15;;;3.85;;
55467;SDS011;41332;42.702;23.200;2023-06-19T11:53:18;4.28;;;3.88;;
55467;SDS011;41332;42.702;23.200;2023-06-19T11:55:44;3.95;;;3.67;;
55467;SDS011;41332;42.702;23.200;2023-06-19T11:58:09;3.53;;;3.33;;
55467;SDS011;41332;42.702;23.200;2023-06-19T12:00:38;3.57;;;3.33;;
55467;SDS011;41332;42.702;23.200;2023-06-19T12:03:04;4.47;;;3.45;;
55467;SDS011;41332;42.702;23.200;2023-06-19T12:05:29;3.87;;;3.60;;
55467;SDS011;41332;42.702;23.200;2023-06-19T12:07:55;5.87;;;5.40;;
55467;SDS011;41332;42.702;23.200;2023-06-19T12:10:23;3.90;;;3.60;;
55467;SDS011;41332;42.702;23.200;2023-06-19T12:12:48;4.13;;;3.40;;
55467;SDS011;41332;42.702;23.200;2023-06-19T12:15:14;3.13;;;2.93;;
55467;SDS011;41332;42.702;23.200;2023-06-19T12:17:40;3.00;;;2.80;;
55467;SDS011;41332;42.702;23.200;2023-06-19T12:20:06;3.47;;;3.27;;
55467;SDS011;41332;42.702;23.200;2023-06-19T12:22:33;3.50;;;3.30;;
55467;SDS011;41332;42.702;23.200;2023-06-19T12:24:59;3.20;;;3.00;;
55467;SDS011;41332;42.702;23.200;2023-06-19T12:27:24;6.07;;;3.80;;
55467;SDS011;41332;42.702;23.200;2023-06-19T12:29:50;3.60;;;3.40;;
55467;SDS011;41332;42.702;23.200;2023-06-19T12:32:15;3.67;;;3.27;;
55467;SDS011;41332;42.702;23.200;2023-06-19T12:34:41;3.57;;;3.27;;
55467;SDS011;41332;42.702;23.200;2023-06-19T12:37:11;3.72;;;3.42;;
55467;SDS011;41332;42.702;23.200;2023-06-19T12:39:40;6.20;;;3.88;;
55467;SDS011;41332;42.702;23.200;2023-06-19T12:42:05;5.43;;;3.10;;
55467;SDS011;41332;42.702;23.200;2023-06-19T12:44:31;2.87;;;2.67;;
55467;SDS011;41332;42.702;23.200;2023-06-19T12:46:57;3.23;;;3.03;;
55467;SDS011;41332;42.702;23.200;2023-06-19T12:49:25;3.45;;;3.20;;
55467;SDS011;41332;42.702;23.200;2023-06-19T12:51:50;3.40;;;3.10;;
55467;SDS011;41332;42.702;23.200;2023-06-19T12:54:17;4.10;;;3.03;;
55467;SDS011;41332;42.702;23.200;2023-06-19T12:56:43;3.05;;;2.85;;
55467;SDS011;41332;42.702;23.200;2023-06-19T12:59:09;3.38;;;2.95;;
55467;SDS011;41332;42.702;23.200;2023-06-19T13:01:35;3.08;;;2.83;;
55467;SDS011;41332;42.702;23.200;2023-06-19T13:04:00;2.73;;;2.53;;
55467;SDS011;41332;42.702;23.200;2023-06-19T13:06:26;3.23;;;2.93;;
55467;SDS011;41332;42.702;23.200;2023-06-19T13:08:51;4.67;;;2.53;;
55467;SDS011;41332;42.702;23.200;2023-06-19T13:11:17;2.77;;;2.57;;
55467;SDS011;41332;42.702;23.200;2023-06-19T13:13:42;3.40;;;3.20;;
55467;SDS011;41332;42.702;23.200;2023-06-19T13:16:08;3.00;;;2.80;;
55467;SDS011;41332;42.702;23.200;2023-06-19T13:18:34;3.10;;;2.90;;
55467;SDS011;41332;42.702;23.200;2023-06-19T13:21:00;3.27;;;2.93;;
55467;SDS011;41332;42.702;23.200;2023-06-19T13:23:25;3.43;;;3.13;;
55467;SDS011;41332;42.702;23.200;2023-06-19T13:25:54;5.70;;;2.60;;
55467;SDS011;41332;42.702;23.200;2023-06-19T13:28:19;3.72;;;3.50;;
55467;SDS011;41332;42.702;23.200;2023-06-19T13:30:44;2.37;;;2.27;;
55467;SDS011;41332;42.702;23.200;2023-06-19T13:33:10;3.03;;;2.73;;
55467;SDS011;41332;42.702;23.200;2023-06-19T13:35:36;4.18;;;2.45;;
55467;SDS011;41332;42.702;23.200;2023-06-19T13:38:01;3.83;;;2.50;;
55467;SDS011;41332;42.702;23.200;2023-06-19T13:40:27;2.97;;;2.73;;
55467;SDS011;41332;42.702;23.200;2023-06-19T13:42:52;2.93;;;2.73;;
55467;SDS011;41332;42.702;23.200;2023-06-19T13:45:18;2.53;;;2.33;;
55467;SDS011;41332;42.702;23.200;2023-06-19T13:47:43;3.13;;;2.93;;
55467;SDS011;41332;42.702;23.200;2023-06-19T13:50:08;3.90;;;3.30;;
55467;SDS011;41332;42.702;23.200;2023-06-19T13:52:34;2.90;;;2.70;;
55467;SDS011;41332;42.702;23.200;2023-06-19T13:57:27;3.33;;;3.13;;
55467;SDS011;41332;42.702;23.200;2023-06-19T13:59:52;3.37;;;3.07;;
55467;SDS011;41332;42.702;23.200;2023-06-19T14:02:18;2.53;;;2.33;;
55467;SDS011;41332;42.702;23.200;2023-06-19T14:04:43;2.90;;;2.70;;
55467;SDS011;41332;42.702;23.200;2023-06-19T14:07:09;3.33;;;3.13;;
55467;SDS011;41332;42.702;23.200;2023-06-19T14:09:34;21.73;;;5.33;;
55467;SDS011;41332;42.702;23.200;2023-06-19T14:11:59;30.33;;;3.90;;
55467;SDS011;41332;42.702;23.200;2023-06-19T14:14:25;24.00;;;4.17;;
55467;SDS011;41332;42.702;23.200;2023-06-19T14:16:50;3.53;;;3.23;;
55467;SDS011;41332;42.702;23.200;2023-06-19T14:19:16;2.83;;;2.63;;
55467;SDS011;41332;42.702;23.200;2023-06-19T14:21:41;7.67;;;4.13;;
55467;SDS011;41332;42.702;23.200;2023-06-19T14:24:06;9.93;;;4.20;;
55467;SDS011;41332;42.702;23.200;2023-06-19T14:26:32;11.90;;;3.93;;
55467;SDS011;41332;42.702;23.200;2023-06-19T14:28:57;3.17;;;2.97;;
55467;SDS011;41332;42.702;23.200;2023-06-19T14:31:24;6.97;;;3.33;;
55467;SDS011;41332;42.702;23.200;2023-06-19T14:33:49;3.33;;;3.03;;
55467;SDS011;41332;42.702;23.200;2023-06-19T14:36:15;2.97;;;2.47;;
55467;SDS011;41332;42.702;23.200;2023-06-19T14:38:40;5.90;;;3.20;;
55467;SDS011;41332;42.702;23.200;2023-06-19T14:41:05;3.43;;;3.10;;
55467;SDS011;41332;42.702;23.200;2023-06-19T14:43:31;9.97;;;5.00;;
55467;SDS011;41332;42.702;23.200;2023-06-19T14:45:57;4.70;;;3.10;;
55467;SDS011;41332;42.702;23.200;2023-06-19T14:48:23;3.33;;;3.03;;
55467;SDS011;41332;42.702;23.200;2023-06-19T14:50:48;2.97;;;2.77;;
55467;SDS011;41332;42.702;23.200;2023-06-19T14:53:14;3.80;;;3.07;;
55467;SDS011;41332;42.702;23.200;2023-06-19T14:55:39;3.57;;;3.23;;
55467;SDS011;41332;42.702;23.200;2023-06-19T14:58:10;4.13;;;3.38;;
55467;SDS011;41332;42.702;23.200;2023-06-19T15:00:35;3.93;;;3.60;;
55467;SDS011;41332;42.702;23.200;2023-06-19T15:03:03;4.65;;;3.08;;
55467;SDS011;41332;42.702;23.200;2023-06-19T15:05:29;3.63;;;3.05;;
55467;SDS011;41332;42.702;23.200;2023-06-19T15:07:54;4.43;;;2.80;;
55467;SDS011;41332;42.702;23.200;2023-06-19T15:10:20;3.70;;;3.20;;
55467;SDS011;41332;42.702;23.200;2023-06-19T15:12:45;3.07;;;2.77;;
55467;SDS011;41332;42.702;23.200;2023-06-19T15:15:11;3.50;;;3.20;;